EmailTwitter


Observations de surface / Québec / LFRK

Régions: Québec | Canada | États-Unis | Europe | France | UK | Ailleurs
Station
Affichage
Infos & localisation pour LFRK | Aide pour décoder les METARs

Observations prises le 2017-09-26 à 16H00 UTC à CAEN/CARPIQUET(A, FR (LFRK)

Etat du ciel: couvert.

Température: 19.0 Celsius

Point de rosée: 15.0 Celsius

Humidité relative: 78%

Indice Humidex: 23.

Vents: Variable à 6 km/h ou 3 noeuds.

Pression au niveau moyen de la mer: 102.10 kilopascals.

Visibilité horizontale: 6.21 milles terrestres ou 9.94 kilomètres.

Hauteur du plafond: 2073 mètres ( 6800 pieds ).

Observation METAR:

LFRK 261600Z AUTO VRB03KT 9999 FEW018 OVC068 19/15 Q1021 NOSIG=